Terminal Aerodrome Forecast
Issued by NWS

Home | Current Version | Previous Version | Text Only | Print | Product List | Glossary On
Versions: 1 2 3 4 5 6 7 8 9 10 11 12 13 14
028
FTUS45 KMSO 201121
TAFSMN
TAF
KSMN 201121Z 2012/2112 00000KT 1/2SM FG BKN007
     FM201900 VRB04KT P6SM BKN100
      AMD LTD TO CLD VIS AND WIND=

USA.gov is the U.S. government's official web portal to all federal, state and local government web resources and services.